sensor_id;sensor_type;location;lat;lon;timestamp;temperature;humidity
54158;DHT22;40065;49.894;10.358;2022-11-20T00:02:22;1.80;99.90
54158;DHT22;40065;49.894;10.358;2022-11-20T00:07:23;1.80;99.90
54158;DHT22;40065;49.894;10.358;2022-11-20T00:12:25;1.90;99.90
54158;DHT22;40065;49.894;10.358;2022-11-20T00:17:27;1.90;99.90
54158;DHT22;40065;49.894;10.358;2022-11-20T00:22:29;1.90;99.90
54158;DHT22;40065;49.894;10.358;2022-11-20T00:27:31;2.10;99.90
54158;DHT22;40065;49.894;10.358;2022-11-20T00:32:32;2.10;99.90
54158;DHT22;40065;49.894;10.358;2022-11-20T00:37:34;2.10;99.90
54158;DHT22;40065;49.894;10.358;2022-11-20T00:42:36;2.20;99.90
54158;DHT22;40065;49.894;10.358;2022-11-20T00:47:38;2.10;99.90
54158;DHT22;40065;49.894;10.358;2022-11-20T00:52:40;2.10;99.90
54158;DHT22;40065;49.894;10.358;2022-11-20T00:57:41;2.10;99.90
54158;DHT22;40065;49.894;10.358;2022-11-20T01:02:43;2.00;99.90
54158;DHT22;40065;49.894;10.358;2022-11-20T01:07:45;1.90;99.90
54158;DHT22;40065;49.894;10.358;2022-11-20T01:12:47;1.90;99.90
54158;DHT22;40065;49.894;10.358;2022-11-20T01:18:08;1.90;99.90
54158;DHT22;40065;49.894;10.358;2022-11-20T01:23:10;1.80;99.90
54158;DHT22;40065;49.894;10.358;2022-11-20T01:28:12;1.80;99.90
54158;DHT22;40065;49.894;10.358;2022-11-20T01:33:13;1.90;99.90
54158;DHT22;40065;49.894;10.358;2022-11-20T01:38:16;1.90;99.90
54158;DHT22;40065;49.894;10.358;2022-11-20T01:43:19;2.00;99.90
54158;DHT22;40065;49.894;10.358;2022-11-20T01:48:40;1.90;99.90
54158;DHT22;40065;49.894;10.358;2022-11-20T01:53:44;2.00;99.90
54158;DHT22;40065;49.894;10.358;2022-11-20T01:58:51;2.20;99.90
54158;DHT22;40065;49.894;10.358;2022-11-20T02:03:54;2.10;99.90
54158;DHT22;40065;49.894;10.358;2022-11-20T02:08:56;2.10;99.90
54158;DHT22;40065;49.894;10.358;2022-11-20T02:13:59;2.10;99.90
54158;DHT22;40065;49.894;10.358;2022-11-20T02:19:04;2.00;99.90
54158;DHT22;40065;49.894;10.358;2022-11-20T02:24:12;1.90;99.90
54158;DHT22;40065;49.894;10.358;2022-11-20T02:29:19;1.90;99.90
54158;DHT22;40065;49.894;10.358;2022-11-20T02:34:24;1.90;99.90
54158;DHT22;40065;49.894;10.358;2022-11-20T02:39:27;2.10;99.90
54158;DHT22;40065;49.894;10.358;2022-11-20T02:44:29;2.10;99.90
54158;DHT22;40065;49.894;10.358;2022-11-20T02:49:31;2.10;99.90
54158;DHT22;40065;49.894;10.358;2022-11-20T02:54:33;2.10;99.90
54158;DHT22;40065;49.894;10.358;2022-11-20T02:59:35;2.10;99.90
54158;DHT22;40065;49.894;10.358;2022-11-20T03:04:36;2.10;99.90
54158;DHT22;40065;49.894;10.358;2022-11-20T03:09:38;2.10;99.90
54158;DHT22;40065;49.894;10.358;2022-11-20T03:14:40;2.10;99.90
54158;DHT22;40065;49.894;10.358;2022-11-20T03:19:42;2.10;99.90
54158;DHT22;40065;49.894;10.358;2022-11-20T03:24:44;2.20;99.90
54158;DHT22;40065;49.894;10.358;2022-11-20T03:29:45;2.20;99.90
54158;DHT22;40065;49.894;10.358;2022-11-20T03:34:47;2.30;99.90
54158;DHT22;40065;49.894;10.358;2022-11-20T03:39:49;2.30;99.90
54158;DHT22;40065;49.894;10.358;2022-11-20T03:44:51;2.40;99.90
54158;DHT22;40065;49.894;10.358;2022-11-20T03:49:52;2.40;99.90
54158;DHT22;40065;49.894;10.358;2022-11-20T03:54:54;2.40;99.90
54158;DHT22;40065;49.894;10.358;2022-11-20T03:59:56;2.40;99.90
54158;DHT22;40065;49.894;10.358;2022-11-20T04:04:58;2.30;99.90
54158;DHT22;40065;49.894;10.358;2022-11-20T04:10:00;2.30;99.90
54158;DHT22;40065;49.894;10.358;2022-11-20T04:15:01;2.20;99.90
54158;DHT22;40065;49.894;10.358;2022-11-20T04:20:04;2.10;99.90
54158;DHT22;40065;49.894;10.358;2022-11-20T04:25:06;2.10;99.90
54158;DHT22;40065;49.894;10.358;2022-11-20T04:30:08;2.10;99.90
54158;DHT22;40065;49.894;10.358;2022-11-20T04:35:10;2.20;99.90
54158;DHT22;40065;49.894;10.358;2022-11-20T04:40:12;2.20;99.90
54158;DHT22;40065;49.894;10.358;2022-11-20T04:45:14;2.30;99.90
54158;DHT22;40065;49.894;10.358;2022-11-20T04:50:15;2.30;99.90
54158;DHT22;40065;49.894;10.358;2022-11-20T04:55:17;2.20;99.90
54158;DHT22;40065;49.894;10.358;2022-11-20T05:00:19;2.30;99.90
54158;DHT22;40065;49.894;10.358;2022-11-20T05:05:21;2.30;99.90
54158;DHT22;40065;49.894;10.358;2022-11-20T05:10:24;2.30;99.90
54158;DHT22;40065;49.894;10.358;2022-11-20T05:15:25;2.30;99.90
54158;DHT22;40065;49.894;10.358;2022-11-20T05:20:27;2.30;99.90
54158;DHT22;40065;49.894;10.358;2022-11-20T05:25:29;2.30;99.90
54158;DHT22;40065;49.894;10.358;2022-11-20T05:30:31;2.20;99.90
54158;DHT22;40065;49.894;10.358;2022-11-20T05:35:33;2.10;99.90
54158;DHT22;40065;49.894;10.358;2022-11-20T05:40:35;2.10;99.90
54158;DHT22;40065;49.894;10.358;2022-11-20T05:45:36;2.00;99.90
54158;DHT22;40065;49.894;10.358;2022-11-20T05:50:39;2.10;99.90
54158;DHT22;40065;49.894;10.358;2022-11-20T05:55:41;2.00;99.90
54158;DHT22;40065;49.894;10.358;2022-11-20T06:00:43;2.00;99.90
54158;DHT22;40065;49.894;10.358;2022-11-20T06:05:44;2.00;99.90
54158;DHT22;40065;49.894;10.358;2022-11-20T06:10:46;1.90;99.90
54158;DHT22;40065;49.894;10.358;2022-11-20T06:15:49;2.00;99.90
54158;DHT22;40065;49.894;10.358;2022-11-20T06:21:02;2.00;99.90
54158;DHT22;40065;49.894;10.358;2022-11-20T06:26:13;1.90;99.90
54158;DHT22;40065;49.894;10.358;2022-11-20T06:31:17;1.90;99.90
54158;DHT22;40065;49.894;10.358;2022-11-20T06:36:21;1.70;99.90
54158;DHT22;40065;49.894;10.358;2022-11-20T06:41:23;1.80;99.90
54158;DHT22;40065;49.894;10.358;2022-11-20T06:46:25;1.90;99.90
54158;DHT22;40065;49.894;10.358;2022-11-20T06:51:27;2.00;99.90
54158;DHT22;40065;49.894;10.358;2022-11-20T06:56:28;2.10;99.90
54158;DHT22;40065;49.894;10.358;2022-11-20T07:01:30;2.20;99.90
54158;DHT22;40065;49.894;10.358;2022-11-20T07:06:32;2.30;99.90
54158;DHT22;40065;49.894;10.358;2022-11-20T07:11:33;2.30;99.90
54158;DHT22;40065;49.894;10.358;2022-11-20T07:16:35;2.40;99.90
54158;DHT22;40065;49.894;10.358;2022-11-20T07:21:37;2.30;99.90
54158;DHT22;40065;49.894;10.358;2022-11-20T07:26:39;2.30;99.90
54158;DHT22;40065;49.894;10.358;2022-11-20T07:31:40;2.40;99.90
54158;DHT22;40065;49.894;10.358;2022-11-20T07:36:42;2.40;99.90
54158;DHT22;40065;49.894;10.358;2022-11-20T07:41:44;2.60;99.90
54158;DHT22;40065;49.894;10.358;2022-11-20T07:46:46;2.60;99.90
54158;DHT22;40065;49.894;10.358;2022-11-20T07:51:50;2.60;99.90
54158;DHT22;40065;49.894;10.358;2022-11-20T07:56:54;2.60;99.90
54158;DHT22;40065;49.894;10.358;2022-11-20T08:01:55;2.70;99.90
54158;DHT22;40065;49.894;10.358;2022-11-20T08:06:57;2.90;99.90
54158;DHT22;40065;49.894;10.358;2022-11-20T08:11:59;2.90;99.90
54158;DHT22;40065;49.894;10.358;2022-11-20T08:17:19;2.80;99.90
54158;DHT22;40065;49.894;10.358;2022-11-20T08:22:21;2.70;99.90
54158;DHT22;40065;49.894;10.358;2022-11-20T08:27:23;2.70;99.90
54158;DHT22;40065;49.894;10.358;2022-11-20T08:32:25;2.90;99.90
54158;DHT22;40065;49.894;10.358;2022-11-20T08:37:26;3.00;99.90
54158;DHT22;40065;49.894;10.358;2022-11-20T08:42:28;3.10;99.90
54158;DHT22;40065;49.894;10.358;2022-11-20T08:47:30;3.10;99.90
54158;DHT22;40065;49.894;10.358;2022-11-20T08:52:31;3.00;99.90
54158;DHT22;40065;49.894;10.358;2022-11-20T08:57:40;3.20;99.90
54158;DHT22;40065;49.894;10.358;2022-11-20T09:02:42;3.10;99.90
54158;DHT22;40065;49.894;10.358;2022-11-20T09:07:43;3.00;99.90
54158;DHT22;40065;49.894;10.358;2022-11-20T09:12:48;3.10;99.90
54158;DHT22;40065;49.894;10.358;2022-11-20T09:17:54;3.10;99.90
54158;DHT22;40065;49.894;10.358;2022-11-20T09:22:56;3.10;99.90
54158;DHT22;40065;49.894;10.358;2022-11-20T09:27:59;3.30;99.90
54158;DHT22;40065;49.894;10.358;2022-11-20T09:33:01;3.50;99.90
54158;DHT22;40065;49.894;10.358;2022-11-20T09:38:06;3.40;99.90
54158;DHT22;40065;49.894;10.358;2022-11-20T09:59:05;3.40;99.90
54158;DHT22;40065;49.894;10.358;2022-11-20T10:04:19;3.30;99.90
54158;DHT22;40065;49.894;10.358;2022-11-20T10:09:29;3.20;99.90
54158;DHT22;40065;49.894;10.358;2022-11-20T10:20:16;3.30;99.90
54158;DHT22;40065;49.894;10.358;2022-11-20T10:25:20;3.80;99.90
54158;DHT22;40065;49.894;10.358;2022-11-20T10:30:23;4.00;99.90
54158;DHT22;40065;49.894;10.358;2022-11-20T10:40:54;4.30;99.90
54158;DHT22;40065;49.894;10.358;2022-11-20T10:46:20;4.20;99.90
54158;DHT22;40065;49.894;10.358;2022-11-20T10:51:59;4.30;99.90
54158;DHT22;40065;49.894;10.358;2022-11-20T10:57:20;4.30;99.90
54158;DHT22;40065;49.894;10.358;2022-11-20T11:02:53;4.80;99.90
54158;DHT22;40065;49.894;10.358;2022-11-20T11:07:57;4.60;99.90
54158;DHT22;40065;49.894;10.358;2022-11-20T11:13:00;4.80;99.90
54158;DHT22;40065;49.894;10.358;2022-11-20T11:18:02;5.40;99.90
54158;DHT22;40065;49.894;10.358;2022-11-20T11:23:04;5.80;99.90
54158;DHT22;40065;49.894;10.358;2022-11-20T11:33:22;5.90;99.90
54158;DHT22;40065;49.894;10.358;2022-11-20T11:38:41;6.00;99.90
54158;DHT22;40065;49.894;10.358;2022-11-20T11:43:53;6.10;99.90
54158;DHT22;40065;49.894;10.358;2022-11-20T11:49:17;6.00;99.90
54158;DHT22;40065;49.894;10.358;2022-11-20T12:05:05;5.10;99.90
54158;DHT22;40065;49.894;10.358;2022-11-20T12:10:39;5.00;99.90
54158;DHT22;40065;49.894;10.358;2022-11-20T12:15:45;4.80;99.90
54158;DHT22;40065;49.894;10.358;2022-11-20T12:26:05;4.50;99.90
54158;DHT22;40065;49.894;10.358;2022-11-20T12:31:37;4.50;99.90
54158;DHT22;40065;49.894;10.358;2022-11-20T12:36:54;4.40;99.90
54158;DHT22;40065;49.894;10.358;2022-11-20T12:42:28;4.20;99.90
54158;DHT22;40065;49.894;10.358;2022-11-20T12:47:58;4.10;99.90
54158;DHT22;40065;49.894;10.358;2022-11-20T12:53:11;4.20;99.90
54158;DHT22;40065;49.894;10.358;2022-11-20T12:58:49;4.30;99.90
54158;DHT22;40065;49.894;10.358;2022-11-20T13:03:53;4.30;99.90
54158;DHT22;40065;49.894;10.358;2022-11-20T13:08:57;4.40;99.90
54158;DHT22;40065;49.894;10.358;2022-11-20T13:14:37;4.40;99.90
54158;DHT22;40065;49.894;10.358;2022-11-20T13:19:41;4.30;99.90
54158;DHT22;40065;49.894;10.358;2022-11-20T13:24:51;4.30;99.90
54158;DHT22;40065;49.894;10.358;2022-11-20T13:30:14;4.40;99.90
54158;DHT22;40065;49.894;10.358;2022-11-20T13:40:58;4.40;99.90
54158;DHT22;40065;49.894;10.358;2022-11-20T13:46:05;4.50;99.90
54158;DHT22;40065;49.894;10.358;2022-11-20T13:51:46;4.60;99.90
54158;DHT22;40065;49.894;10.358;2022-11-20T13:57:16;4.70;99.90
54158;DHT22;40065;49.894;10.358;2022-11-20T14:02:23;4.60;99.90
54158;DHT22;40065;49.894;10.358;2022-11-20T14:07:39;4.60;99.90
54158;DHT22;40065;49.894;10.358;2022-11-20T14:12:41;4.40;99.90
54158;DHT22;40065;49.894;10.358;2022-11-20T14:17:43;4.30;99.90
54158;DHT22;40065;49.894;10.358;2022-11-20T14:22:51;4.40;99.90
54158;DHT22;40065;49.894;10.358;2022-11-20T14:27:55;4.50;99.90
54158;DHT22;40065;49.894;10.358;2022-11-20T14:33:02;4.50;99.90
54158;DHT22;40065;49.894;10.358;2022-11-20T14:38:11;4.40;99.90
54158;DHT22;40065;49.894;10.358;2022-11-20T14:48:41;4.20;99.90
54158;DHT22;40065;49.894;10.358;2022-11-20T14:53:44;4.20;99.90
54158;DHT22;40065;49.894;10.358;2022-11-20T14:58:56;4.20;99.90
54158;DHT22;40065;49.894;10.358;2022-11-20T15:04:10;4.30;99.90
54158;DHT22;40065;49.894;10.358;2022-11-20T15:09:14;4.20;99.90
54158;DHT22;40065;49.894;10.358;2022-11-20T15:14:16;4.30;99.90
54158;DHT22;40065;49.894;10.358;2022-11-20T15:19:23;4.20;99.90
54158;DHT22;40065;49.894;10.358;2022-11-20T15:24:25;4.20;99.90
54158;DHT22;40065;49.894;10.358;2022-11-20T15:29:27;4.30;99.90
54158;DHT22;40065;49.894;10.358;2022-11-20T15:34:29;4.30;99.90
54158;DHT22;40065;49.894;10.358;2022-11-20T15:39:31;4.30;99.90
54158;DHT22;40065;49.894;10.358;2022-11-20T15:44:32;4.20;99.90
54158;DHT22;40065;49.894;10.358;2022-11-20T15:49:35;4.30;99.90
54158;DHT22;40065;49.894;10.358;2022-11-20T15:54:37;4.20;99.90
54158;DHT22;40065;49.894;10.358;2022-11-20T15:59:39;4.20;99.90
54158;DHT22;40065;49.894;10.358;2022-11-20T16:04:43;4.20;99.90
54158;DHT22;40065;49.894;10.358;2022-11-20T16:09:45;4.20;99.90
54158;DHT22;40065;49.894;10.358;2022-11-20T16:14:46;4.20;99.90
54158;DHT22;40065;49.894;10.358;2022-11-20T16:20:15;4.30;99.90
54158;DHT22;40065;49.894;10.358;2022-11-20T16:25:17;4.40;99.90
54158;DHT22;40065;49.894;10.358;2022-11-20T16:30:18;4.40;99.90
54158;DHT22;40065;49.894;10.358;2022-11-20T16:35:20;4.30;99.90
54158;DHT22;40065;49.894;10.358;2022-11-20T16:40:22;4.20;99.90
54158;DHT22;40065;49.894;10.358;2022-11-20T16:45:25;4.20;99.90
54158;DHT22;40065;49.894;10.358;2022-11-20T16:50:33;4.30;99.90
54158;DHT22;40065;49.894;10.358;2022-11-20T16:55:35;4.20;99.90
54158;DHT22;40065;49.894;10.358;2022-11-20T17:00:38;4.10;99.90
54158;DHT22;40065;49.894;10.358;2022-11-20T17:05:40;3.90;99.90
54158;DHT22;40065;49.894;10.358;2022-11-20T17:10:41;3.80;99.90
54158;DHT22;40065;49.894;10.358;2022-11-20T17:15:43;3.90;99.90
54158;DHT22;40065;49.894;10.358;2022-11-20T17:20:51;3.90;99.90
54158;DHT22;40065;49.894;10.358;2022-11-20T17:25:52;4.10;99.90
54158;DHT22;40065;49.894;10.358;2022-11-20T17:30:59;4.10;99.90
54158;DHT22;40065;49.894;10.358;2022-11-20T17:36:01;4.10;99.90
54158;DHT22;40065;49.894;10.358;2022-11-20T17:41:08;4.20;99.90
54158;DHT22;40065;49.894;10.358;2022-11-20T17:46:15;4.20;99.90
54158;DHT22;40065;49.894;10.358;2022-11-20T17:51:23;4.20;99.90
54158;DHT22;40065;49.894;10.358;2022-11-20T17:56:26;4.30;99.90
54158;DHT22;40065;49.894;10.358;2022-11-20T18:01:49;4.30;99.90
54158;DHT22;40065;49.894;10.358;2022-11-20T18:06:51;4.40;99.90
54158;DHT22;40065;49.894;10.358;2022-11-20T18:11:53;4.40;99.90
54158;DHT22;40065;49.894;10.358;2022-11-20T18:17:12;4.50;99.90
54158;DHT22;40065;49.894;10.358;2022-11-20T18:22:15;4.60;99.90
54158;DHT22;40065;49.894;10.358;2022-11-20T18:27:19;4.90;99.90
54158;DHT22;40065;49.894;10.358;2022-11-20T18:32:22;4.90;99.90
54158;DHT22;40065;49.894;10.358;2022-11-20T18:37:23;4.90;99.90
54158;DHT22;40065;49.894;10.358;2022-11-20T18:42:25;5.10;99.90
54158;DHT22;40065;49.894;10.358;2022-11-20T18:47:46;5.20;99.90
54158;DHT22;40065;49.894;10.358;2022-11-20T18:52:47;5.60;99.90
54158;DHT22;40065;49.894;10.358;2022-11-20T18:57:49;5.70;99.90
54158;DHT22;40065;49.894;10.358;2022-11-20T19:02:52;5.80;99.90
54158;DHT22;40065;49.894;10.358;2022-11-20T19:07:55;5.80;99.90
54158;DHT22;40065;49.894;10.358;2022-11-20T19:12:56;5.80;99.90
54158;DHT22;40065;49.894;10.358;2022-11-20T19:17:59;5.80;99.90
54158;DHT22;40065;49.894;10.358;2022-11-20T19:23:01;5.90;99.90
54158;DHT22;40065;49.894;10.358;2022-11-20T19:28:04;6.00;99.90
54158;DHT22;40065;49.894;10.358;2022-11-20T19:33:06;6.00;99.90
54158;DHT22;40065;49.894;10.358;2022-11-20T19:38:08;6.10;99.90
54158;DHT22;40065;49.894;10.358;2022-11-20T19:43:11;6.10;99.90
54158;DHT22;40065;49.894;10.358;2022-11-20T19:48:12;6.00;99.90
54158;DHT22;40065;49.894;10.358;2022-11-20T19:53:14;6.00;99.90
54158;DHT22;40065;49.894;10.358;2022-11-20T19:58:16;6.00;99.90
54158;DHT22;40065;49.894;10.358;2022-11-20T20:03:18;6.00;99.90
54158;DHT22;40065;49.894;10.358;2022-11-20T20:08:20;6.00;99.90
54158;DHT22;40065;49.894;10.358;2022-11-20T20:13:23;6.10;99.90
54158;DHT22;40065;49.894;10.358;2022-11-20T20:18:25;6.10;99.90
54158;DHT22;40065;49.894;10.358;2022-11-20T20:23:27;6.10;99.90
54158;DHT22;40065;49.894;10.358;2022-11-20T20:28:29;6.20;99.90
54158;DHT22;40065;49.894;10.358;2022-11-20T20:33:31;6.20;99.90
54158;DHT22;40065;49.894;10.358;2022-11-20T20:38:33;6.10;99.90
54158;DHT22;40065;49.894;10.358;2022-11-20T20:43:35;6.10;99.90
54158;DHT22;40065;49.894;10.358;2022-11-20T20:48:58;6.10;99.90
54158;DHT22;40065;49.894;10.358;2022-11-20T20:54:00;6.10;99.90
54158;DHT22;40065;49.894;10.358;2022-11-20T20:59:02;6.10;99.90
54158;DHT22;40065;49.894;10.358;2022-11-20T21:04:04;6.10;99.90
54158;DHT22;40065;49.894;10.358;2022-11-20T21:09:06;6.10;99.90
54158;DHT22;40065;49.894;10.358;2022-11-20T21:14:08;6.10;99.90
54158;DHT22;40065;49.894;10.358;2022-11-20T21:19:10;6.20;99.90
54158;DHT22;40065;49.894;10.358;2022-11-20T21:24:12;6.10;99.90
54158;DHT22;40065;49.894;10.358;2022-11-20T21:29:14;6.10;99.90
54158;DHT22;40065;49.894;10.358;2022-11-20T21:34:16;6.10;99.90
54158;DHT22;40065;49.894;10.358;2022-11-20T21:39:19;6.10;99.90
54158;DHT22;40065;49.894;10.358;2022-11-20T21:44:22;6.00;99.90
54158;DHT22;40065;49.894;10.358;2022-11-20T21:49:32;6.00;99.90
54158;DHT22;40065;49.894;10.358;2022-11-20T21:54:33;6.10;99.90
54158;DHT22;40065;49.894;10.358;2022-11-20T21:59:36;6.00;99.90
54158;DHT22;40065;49.894;10.358;2022-11-20T22:04:38;6.10;99.90
54158;DHT22;40065;49.894;10.358;2022-11-20T22:09:40;6.00;99.90
54158;DHT22;40065;49.894;10.358;2022-11-20T22:14:42;5.90;99.90
54158;DHT22;40065;49.894;10.358;2022-11-20T22:19:45;6.00;99.90
54158;DHT22;40065;49.894;10.358;2022-11-20T22:24:46;6.10;99.90
54158;DHT22;40065;49.894;10.358;2022-11-20T22:29:48;6.10;99.90
54158;DHT22;40065;49.894;10.358;2022-11-20T22:34:50;6.10;99.90
54158;DHT22;40065;49.894;10.358;2022-11-20T22:39:52;6.00;99.90
54158;DHT22;40065;49.894;10.358;2022-11-20T22:44:53;6.10;99.90
54158;DHT22;40065;49.894;10.358;2022-11-20T22:49:55;6.10;99.90
54158;DHT22;40065;49.894;10.358;2022-11-20T22:54:57;6.10;99.90
54158;DHT22;40065;49.894;10.358;2022-11-20T22:59:59;6.10;99.90
54158;DHT22;40065;49.894;10.358;2022-11-20T23:05:01;6.20;99.90
54158;DHT22;40065;49.894;10.358;2022-11-20T23:10:03;6.20;99.90
54158;DHT22;40065;49.894;10.358;2022-11-20T23:15:05;6.20;99.90
54158;DHT22;40065;49.894;10.358;2022-11-20T23:20:08;6.20;99.90
54158;DHT22;40065;49.894;10.358;2022-11-20T23:25:10;6.20;99.90
54158;DHT22;40065;49.894;10.358;2022-11-20T23:30:12;6.20;99.90
54158;DHT22;40065;49.894;10.358;2022-11-20T23:35:14;6.30;99.90
54158;DHT22;40065;49.894;10.358;2022-11-20T23:40:16;6.30;99.90
54158;DHT22;40065;49.894;10.358;2022-11-20T23:45:18;6.40;99.90
54158;DHT22;40065;49.894;10.358;2022-11-20T23:50:19;6.30;99.90
54158;DHT22;40065;49.894;10.358;2022-11-20T23:55:21;6.20;99.90
